createdAt,value
2018-03-14T00:02:25.859Z,77.00
2018-03-14T00:04:54.269Z,76.90
2018-03-14T00:07:21.894Z,76.70
2018-03-14T00:09:50.320Z,77.10
2018-03-14T00:12:17.919Z,77.10
2018-03-14T00:14:45.545Z,77.00
2018-03-14T00:17:13.149Z,77.10
2018-03-14T00:19:40.732Z,76.80
2018-03-14T00:22:08.371Z,76.70
2018-03-14T00:24:37.089Z,77.70
2018-03-14T00:27:04.669Z,77.70
2018-03-14T00:29:33.185Z,78.20
2018-03-14T00:32:00.786Z,78.90
2018-03-14T00:34:29.131Z,79.70
2018-03-14T00:36:56.719Z,79.70
2018-03-14T00:39:25.141Z,80.40
2018-03-14T00:41:54.027Z,81.00
2018-03-14T00:44:22.362Z,81.50
2018-03-14T00:46:50.179Z,81.50
2018-03-14T00:49:18.502Z,81.00
2018-03-14T00:51:46.857Z,81.40
2018-03-14T00:54:14.482Z,81.30
2018-03-14T00:56:42.053Z,81.20
2018-03-14T00:59:09.652Z,81.30
2018-03-14T01:01:37.218Z,81.00
2018-03-14T01:04:04.812Z,81.00
2018-03-14T01:06:32.367Z,81.00
2018-03-14T01:08:59.943Z,81.70
2018-03-14T01:11:27.511Z,81.50
2018-03-14T01:13:55.150Z,80.90
2018-03-14T01:16:23.442Z,79.30
2018-03-14T01:18:51.035Z,79.70
2018-03-14T01:21:18.601Z,80.30
2018-03-14T01:23:46.978Z,80.90
2018-03-14T01:26:14.586Z,80.90
2018-03-14T01:28:42.943Z,80.00
2018-03-14T01:31:10.528Z,79.90
2018-03-14T01:33:38.115Z,80.40
2018-03-14T01:36:06.428Z,81.00
2018-03-14T01:38:34.030Z,81.00
2018-03-14T01:41:02.350Z,80.40
2018-03-14T01:43:29.922Z,80.40
2018-03-14T01:45:57.510Z,80.90
2018-03-14T01:48:25.093Z,80.90
2018-03-14T01:50:54.059Z,80.80
2018-03-14T01:53:29.554Z,80.70
2018-03-14T01:55:57.862Z,81.00
2018-03-14T01:58:26.176Z,81.20
2018-03-14T02:00:54.977Z,81.20
2018-03-14T02:03:23.115Z,80.90
2018-03-14T02:05:50.766Z,81.10
2018-03-14T02:08:18.346Z,81.00
2018-03-14T02:10:46.712Z,80.50
2018-03-14T02:13:15.023Z,81.20
2018-03-14T02:15:42.962Z,81.10
2018-03-14T02:18:10.546Z,80.80
2018-03-14T02:20:38.856Z,80.60
2018-03-14T02:23:06.628Z,80.60
2018-03-14T02:25:34.211Z,80.50
2018-03-14T02:28:01.929Z,79.90
2018-03-14T02:30:30.441Z,79.80
2018-03-14T02:32:58.018Z,79.50
2018-03-14T02:35:26.386Z,79.10
2018-03-14T02:37:55.125Z,79.10
2018-03-14T02:40:23.057Z,79.50
2018-03-14T02:42:50.627Z,79.00
2018-03-14T02:45:19.022Z,79.20
2018-03-14T02:47:46.602Z,79.20
2018-03-14T02:50:15.189Z,79.20
2018-03-14T02:52:42.718Z,78.90
2018-03-14T02:55:10.312Z,79.00
2018-03-14T02:57:37.878Z,79.80
2018-03-14T03:00:05.524Z,78.90
2018-03-14T03:02:33.083Z,78.70
2018-03-14T03:05:01.586Z,79.00
2018-03-14T03:07:29.094Z,78.50
2018-03-14T03:09:56.705Z,78.40
2018-03-14T03:12:26.156Z,78.20
2018-03-14T03:14:55.267Z,78.10
2018-03-14T03:17:23.751Z,78.10
2018-03-14T03:19:51.309Z,78.30
2018-03-14T03:22:18.875Z,78.90
2018-03-14T03:24:46.423Z,78.60
2018-03-14T03:27:14.880Z,78.70
2018-03-14T03:29:43.261Z,78.90
2018-03-14T03:32:10.839Z,78.90
2018-03-14T03:34:38.400Z,78.80
2018-03-14T03:37:05.961Z,78.80
2018-03-14T03:39:33.507Z,79.00
2018-03-14T03:42:01.854Z,79.40
2018-03-14T03:44:29.443Z,79.40
2018-03-14T03:46:57.090Z,79.30
2018-03-14T03:49:26.144Z,79.40
2018-03-14T03:51:55.290Z,79.30
2018-03-14T03:54:24.032Z,79.30
2018-03-14T03:56:51.627Z,79.30
2018-03-14T03:59:19.189Z,79.40
2018-03-14T04:01:46.787Z,79.80
2018-03-14T04:04:14.346Z,79.80
2018-03-14T04:06:42.693Z,79.60
2018-03-14T04:09:10.278Z,79.50
2018-03-14T04:11:37.827Z,79.40
2018-03-14T04:14:05.452Z,79.30
2018-03-14T04:16:33.008Z,79.20
2018-03-14T04:19:00.576Z,79.40
2018-03-14T04:21:28.158Z,79.80
2018-03-14T04:23:56.679Z,79.80
2018-03-14T04:26:24.866Z,79.40
2018-03-14T04:28:53.036Z,79.50
2018-03-14T04:31:21.359Z,79.80
2018-03-14T04:33:49.901Z,79.80
2018-03-14T04:36:17.468Z,79.50
2018-03-14T04:38:45.098Z,79.60
2018-03-14T04:41:12.641Z,79.80
2018-03-14T04:43:40.219Z,79.50
2018-03-14T04:46:08.804Z,79.50
2018-03-14T04:48:36.351Z,79.50
2018-03-14T04:51:04.959Z,79.50
2018-03-14T04:53:32.517Z,79.70
2018-03-14T04:56:00.099Z,79.60
2018-03-14T04:58:28.433Z,79.20
2018-03-14T05:00:56.010Z,79.20
2018-03-14T05:03:23.974Z,79.20
2018-03-14T05:05:51.565Z,79.30
2018-03-14T05:08:19.128Z,79.30
2018-03-14T05:10:47.472Z,79.10
2018-03-14T05:13:15.830Z,79.00
2018-03-14T05:15:44.348Z,79.10
2018-03-14T05:18:11.883Z,78.70
2018-03-14T05:20:39.472Z,78.50
2018-03-14T05:23:07.043Z,78.60
2018-03-14T05:25:34.668Z,78.60
2018-03-14T05:28:02.978Z,78.60
2018-03-14T05:30:30.568Z,78.50
2018-03-14T05:32:58.127Z,78.20
2018-03-14T05:35:26.483Z,78.40
2018-03-14T05:37:54.837Z,78.40
2018-03-14T05:40:23.026Z,78.40
2018-03-14T05:42:50.623Z,78.60
2018-03-14T05:45:18.149Z,78.80
2018-03-14T05:47:45.773Z,78.20
2018-03-14T05:50:13.340Z,78.10
2018-03-14T05:52:41.705Z,78.50
2018-03-14T05:55:09.304Z,78.40
2018-03-14T05:57:36.875Z,79.00
2018-03-14T06:00:05.229Z,77.90
2018-03-14T06:02:32.836Z,77.90
2018-03-14T06:05:00.439Z,77.40
2018-03-14T06:07:28.908Z,78.40
2018-03-14T06:09:57.233Z,78.60
2018-03-14T06:12:25.177Z,78.70
2018-03-14T06:14:53.459Z,78.50
2018-03-14T06:17:21.061Z,78.60
2018-03-14T06:19:48.650Z,78.30
2018-03-14T06:22:16.208Z,78.50
2018-03-14T06:24:43.799Z,78.70
2018-03-14T06:27:11.419Z,78.40
2018-03-14T06:29:39.846Z,78.30
2018-03-14T06:32:07.440Z,78.10
2018-03-14T06:34:35.042Z,78.00
2018-03-14T06:37:02.596Z,78.30
2018-03-14T06:39:30.201Z,78.40
2018-03-14T06:41:57.806Z,78.30
2018-03-14T06:44:25.375Z,78.40
2018-03-14T06:46:53.661Z,77.90
2018-03-14T06:49:21.259Z,77.90
2018-03-14T06:51:49.725Z,78.20
2018-03-14T06:54:17.279Z,78.20
2018-03-14T06:56:44.948Z,78.00
2018-03-14T06:59:25.459Z,77.80
2018-03-14T07:02:05.687Z,78.40
2018-03-14T07:07:32.539Z,77.00
2018-03-14T07:10:00.923Z,77.50
2018-03-14T07:12:29.274Z,77.00
2018-03-14T07:14:57.769Z,77.30
2018-03-14T07:17:26.162Z,77.00
2018-03-14T07:19:54.127Z,77.00
2018-03-14T07:22:22.929Z,77.20
2018-03-14T07:24:50.525Z,77.10
2018-03-14T07:27:18.091Z,77.80
2018-03-14T07:29:46.438Z,78.00
2018-03-14T07:32:14.370Z,78.30
2018-03-14T07:34:41.946Z,77.70
2018-03-14T07:37:10.337Z,77.60
2018-03-14T07:39:38.931Z,77.60
2018-03-14T07:42:06.540Z,77.30
2018-03-14T07:44:35.175Z,77.40
2018-03-14T07:47:03.564Z,77.20
2018-03-14T07:49:31.153Z,77.10
2018-03-14T07:51:58.800Z,76.80
2018-03-14T07:54:26.726Z,76.60
2018-03-14T07:56:55.078Z,76.60
2018-03-14T07:59:22.982Z,76.40
2018-03-14T08:01:50.599Z,77.00
2018-03-14T08:04:18.355Z,77.20
2018-03-14T08:06:45.998Z,77.60
2018-03-14T08:09:13.740Z,77.10
2018-03-14T08:11:42.317Z,77.30
2018-03-14T08:14:10.699Z,77.80
2018-03-14T08:16:38.295Z,77.80
2018-03-14T08:19:05.864Z,77.70
2018-03-14T08:21:34.245Z,78.30
2018-03-14T08:24:02.584Z,78.30
2018-03-14T08:26:31.152Z,78.40
2018-03-14T08:28:59.540Z,78.20
2018-03-14T08:31:27.183Z,78.20
2018-03-14T08:33:55.423Z,77.70
2018-03-14T08:36:24.407Z,77.30
2018-03-14T08:38:52.010Z,77.30
2018-03-14T08:41:19.566Z,77.80
2018-03-14T08:43:47.953Z,78.00
2018-03-14T08:46:15.523Z,78.10
2018-03-14T08:48:43.108Z,77.90
2018-03-14T08:51:11.472Z,78.10
2018-03-14T08:53:41.081Z,78.40
2018-03-14T08:56:08.630Z,77.80
2018-03-14T08:58:37.578Z,77.60
2018-03-14T09:01:05.901Z,77.50
2018-03-14T09:03:33.507Z,77.40
2018-03-14T09:06:02.008Z,77.60
2018-03-14T09:08:29.607Z,77.90
2018-03-14T09:10:57.189Z,78.00
2018-03-14T09:13:25.060Z,77.20
2018-03-14T09:15:52.954Z,77.90
2018-03-14T09:18:20.611Z,77.60
2018-03-14T09:20:48.289Z,77.50
2018-03-14T09:23:16.695Z,75.60
2018-03-14T09:25:44.255Z,75.70
2018-03-14T09:28:11.898Z,75.80
2018-03-14T09:30:39.467Z,75.00
2018-03-14T09:33:07.812Z,72.40
2018-03-14T09:35:36.126Z,69.80
2018-03-14T09:38:03.724Z,69.80
2018-03-14T09:40:32.182Z,69.80
2018-03-14T09:42:59.753Z,69.80
2018-03-14T09:45:27.534Z,69.80
2018-03-14T09:47:55.115Z,69.60
2018-03-14T09:50:23.530Z,69.30
2018-03-14T09:52:51.081Z,69.20
2018-03-14T09:55:18.729Z,69.30
2018-03-14T09:57:47.057Z,67.20
2018-03-14T10:00:14.666Z,67.10
2018-03-14T10:02:42.208Z,68.80
2018-03-14T10:05:09.830Z,68.40
2018-03-14T10:07:37.367Z,68.10
2018-03-14T10:10:04.969Z,68.30
2018-03-14T10:12:32.519Z,68.00
2018-03-14T10:15:00.998Z,67.80
2018-03-14T10:17:28.577Z,67.80
2018-03-14T10:19:56.176Z,68.80
2018-03-14T10:22:24.566Z,68.60
2018-03-14T10:24:53.126Z,70.30
2018-03-14T10:27:21.490Z,70.50
2018-03-14T10:29:49.888Z,71.20
2018-03-14T10:32:18.238Z,69.30
2018-03-14T10:34:46.632Z,69.50
2018-03-14T10:37:14.226Z,69.60
2018-03-14T10:39:42.617Z,68.50
2018-03-14T10:42:10.965Z,69.60
2018-03-14T10:44:38.981Z,69.70
2018-03-14T10:47:06.596Z,70.30
2018-03-14T10:49:34.188Z,70.80
2018-03-14T10:52:01.756Z,70.50
2018-03-14T10:54:30.099Z,69.50
2018-03-14T10:56:57.683Z,69.50
2018-03-14T10:59:25.431Z,69.40
2018-03-14T11:01:54.933Z,68.60
2018-03-14T11:04:23.009Z,69.30
2018-03-14T11:06:50.580Z,67.40
2018-03-14T11:09:18.924Z,63.30
2018-03-14T11:11:46.522Z,63.10
2018-03-14T11:14:14.846Z,63.20
2018-03-14T11:16:43.197Z,63.20
2018-03-14T11:19:11.632Z,60.10
2018-03-14T11:21:39.217Z,60.10
2018-03-14T11:24:06.788Z,58.40
2018-03-14T11:26:34.387Z,59.40
2018-03-14T11:29:01.977Z,59.30
2018-03-14T11:31:29.585Z,59.00
2018-03-14T11:33:57.290Z,59.40
2018-03-14T11:36:25.418Z,59.60
2018-03-14T11:38:53.736Z,59.10
2018-03-14T11:41:21.398Z,59.40
2018-03-14T11:43:49.719Z,60.60
2018-03-14T11:46:17.298Z,60.60
2018-03-14T11:48:45.629Z,61.20
2018-03-14T11:51:13.197Z,61.30
2018-03-14T11:53:41.563Z,59.70
2018-03-14T11:56:09.917Z,58.00
2018-03-14T11:58:37.631Z,58.00
2018-03-14T12:01:05.223Z,58.80
2018-03-14T12:03:32.826Z,58.50
2018-03-14T12:06:00.376Z,57.40
2018-03-14T12:08:28.091Z,57.80
2018-03-14T12:10:55.628Z,57.20
2018-03-14T12:13:24.795Z,56.40
2018-03-14T12:15:52.315Z,56.40
2018-03-14T12:18:19.915Z,56.80
2018-03-14T12:20:47.552Z,57.30
2018-03-14T12:23:15.886Z,55.20
2018-03-14T12:25:43.459Z,55.20
2018-03-14T12:28:11.034Z,55.30
2018-03-14T12:30:38.583Z,55.50
2018-03-14T12:33:06.178Z,55.60
2018-03-14T12:35:33.746Z,55.30
2018-03-14T12:38:01.343Z,55.10
2018-03-14T12:40:28.903Z,54.20
2018-03-14T12:42:57.251Z,52.80
2018-03-14T12:45:25.262Z,52.80
2018-03-14T12:47:54.124Z,53.10
2018-03-14T12:50:21.721Z,54.00
2018-03-14T12:52:49.308Z,53.60
2018-03-14T12:55:16.848Z,54.00
2018-03-14T12:57:44.444Z,54.90
2018-03-14T13:00:12.032Z,54.00
2018-03-14T13:02:39.606Z,53.40
2018-03-14T13:05:07.159Z,51.90
2018-03-14T13:07:35.589Z,52.40
2018-03-14T13:10:03.377Z,52.40
2018-03-14T13:12:31.775Z,52.30
2018-03-14T13:14:59.324Z,52.40
2018-03-14T13:17:26.914Z,51.40
2018-03-14T13:19:55.660Z,51.10
2018-03-14T13:22:25.003Z,52.40
2018-03-14T13:24:53.057Z,52.40
2018-03-14T13:27:20.655Z,51.30
2018-03-14T13:29:48.214Z,51.50
2018-03-14T13:32:15.794Z,51.10
2018-03-14T13:34:43.350Z,50.40
2018-03-14T13:37:11.776Z,50.20
2018-03-14T13:39:39.363Z,50.40
2018-03-14T13:42:06.986Z,49.40
2018-03-14T13:44:35.346Z,51.40
2018-03-14T13:47:03.709Z,51.10
2018-03-14T13:49:32.043Z,50.30
2018-03-14T13:51:59.648Z,50.30
2018-03-14T13:54:27.222Z,49.60
2018-03-14T13:56:55.572Z,49.90
2018-03-14T13:59:24.828Z,48.90
2018-03-14T14:01:53.851Z,49.40
2018-03-14T14:04:21.471Z,49.10
2018-03-14T14:06:49.823Z,51.20
2018-03-14T14:09:17.415Z,51.20
2018-03-14T14:11:45.051Z,50.90
2018-03-14T14:14:12.602Z,51.20
2018-03-14T14:16:40.527Z,51.50
2018-03-14T14:19:08.061Z,52.70
2018-03-14T14:21:35.680Z,52.80
2018-03-14T14:24:03.249Z,52.10
2018-03-14T14:26:30.863Z,52.10
2018-03-14T14:28:58.441Z,52.40
2018-03-14T14:31:26.030Z,50.80
2018-03-14T14:33:54.078Z,51.10
2018-03-14T14:36:21.662Z,51.60
2018-03-14T14:38:49.234Z,52.10
2018-03-14T14:41:16.816Z,52.40
2018-03-14T14:43:44.417Z,51.50
2018-03-14T14:46:12.781Z,51.90
2018-03-14T14:48:40.440Z,51.90
2018-03-14T14:51:08.795Z,52.50
2018-03-14T14:53:36.457Z,52.50
2018-03-14T14:56:04.758Z,52.80
2018-03-14T14:58:32.366Z,52.80
2018-03-14T15:00:59.999Z,52.20
2018-03-14T15:03:27.622Z,52.50
2018-03-14T15:05:55.197Z,52.70
2018-03-14T15:08:23.023Z,52.70
2018-03-14T15:10:51.379Z,52.00
2018-03-14T15:13:18.993Z,52.10
2018-03-14T15:15:47.429Z,52.70
2018-03-14T15:18:15.044Z,52.60
2018-03-14T15:20:43.405Z,51.90
2018-03-14T15:23:10.991Z,51.90
2018-03-14T15:25:38.614Z,52.60
2018-03-14T15:28:06.195Z,52.80
2018-03-14T15:30:34.619Z,52.80
2018-03-14T15:33:02.972Z,53.00
2018-03-14T15:35:30.578Z,52.80
2018-03-14T15:37:58.121Z,52.30
2018-03-14T15:40:27.663Z,52.50
2018-03-14T15:42:55.320Z,52.90
2018-03-14T15:45:24.094Z,53.60
2018-03-14T15:47:51.649Z,54.40
2018-03-14T15:50:19.232Z,54.40
2018-03-14T15:52:46.835Z,55.00
2018-03-14T15:55:14.424Z,54.80
2018-03-14T15:57:42.038Z,54.80
2018-03-14T16:00:09.591Z,55.10
2018-03-14T16:02:37.947Z,54.60
2018-03-14T16:05:06.768Z,54.60
2018-03-14T16:07:34.372Z,54.70
2018-03-14T16:10:01.954Z,54.90
2018-03-14T16:12:29.597Z,54.90
2018-03-14T16:14:57.162Z,55.00
2018-03-14T16:17:25.148Z,55.50
2018-03-14T16:19:53.080Z,55.50
2018-03-14T16:22:20.686Z,55.90
2018-03-14T16:24:48.266Z,55.60
2018-03-14T16:27:15.859Z,56.20
2018-03-14T16:29:43.487Z,56.70
2018-03-14T16:32:11.068Z,56.70
2018-03-14T16:34:38.635Z,56.10
2018-03-14T16:37:06.225Z,56.70
2018-03-14T16:39:33.805Z,56.50
2018-03-14T16:42:01.412Z,57.00
2018-03-14T16:44:28.966Z,56.90
2018-03-14T16:46:57.300Z,57.20
2018-03-14T16:49:25.410Z,57.20
2018-03-14T16:51:54.189Z,57.70
2018-03-14T16:54:21.787Z,59.40
2018-03-14T16:56:49.349Z,60.30
2018-03-14T16:59:16.943Z,60.80
2018-03-14T17:01:44.534Z,61.50
2018-03-14T17:04:12.894Z,62.90
2018-03-14T17:06:40.510Z,62.80
2018-03-14T17:09:08.091Z,63.60
2018-03-14T17:11:35.677Z,63.80
2018-03-14T17:14:03.328Z,64.00
2018-03-14T17:16:31.024Z,64.30
2018-03-14T17:18:58.579Z,64.00
2018-03-14T17:21:26.214Z,64.70
2018-03-14T17:23:54.806Z,64.60
2018-03-14T17:26:24.365Z,65.20
2018-03-14T17:28:51.930Z,65.20
2018-03-14T17:31:19.515Z,65.70
2018-03-14T17:33:47.107Z,66.40
2018-03-14T17:36:14.731Z,66.60
2018-03-14T17:38:42.310Z,67.00
2018-03-14T17:41:09.910Z,67.00
2018-03-14T17:43:38.238Z,68.20
2018-03-14T17:46:05.823Z,68.10
2018-03-14T17:48:33.537Z,68.20
2018-03-14T17:51:01.937Z,68.50
2018-03-14T17:53:29.498Z,68.50
2018-03-14T17:55:57.141Z,68.50
2018-03-14T17:58:25.069Z,68.40
2018-03-14T18:00:53.170Z,68.30
2018-03-14T18:03:22.047Z,68.40
2018-03-14T18:05:50.400Z,69.20
2018-03-14T18:08:18.055Z,68.70
2018-03-14T18:10:45.694Z,69.30
2018-03-14T18:13:14.010Z,69.60
2018-03-14T18:15:41.645Z,69.60
2018-03-14T18:18:09.208Z,69.60
2018-03-14T18:20:36.786Z,69.70
2018-03-14T18:23:04.382Z,69.90
2018-03-14T18:25:31.983Z,70.10
2018-03-14T18:27:59.551Z,70.50
2018-03-14T18:30:27.247Z,70.30
2018-03-14T18:32:55.587Z,70.00
2018-03-14T18:35:24.101Z,70.00
2018-03-14T18:37:51.696Z,70.30
2018-03-14T18:40:19.330Z,70.40
2018-03-14T18:42:47.093Z,70.30
2018-03-14T18:45:15.671Z,70.60
2018-03-14T18:47:43.267Z,70.50
2018-03-14T18:50:10.847Z,70.30
2018-03-14T18:52:38.400Z,70.60
2018-03-14T18:55:06.000Z,71.00
2018-03-14T18:57:33.573Z,71.30
2018-03-14T19:00:01.176Z,71.20
2018-03-14T19:02:28.775Z,71.50
2018-03-14T19:04:56.384Z,71.70
2018-03-14T19:07:24.915Z,72.10
2018-03-14T19:09:53.319Z,72.30
2018-03-14T19:12:20.921Z,72.70
2018-03-14T19:14:48.502Z,72.90
2018-03-14T19:17:16.863Z,73.10
2018-03-14T19:19:45.233Z,73.00
2018-03-14T19:22:13.561Z,73.10
2018-03-14T19:24:41.241Z,73.10
2018-03-14T19:27:08.850Z,73.20
2018-03-14T19:29:36.512Z,74.00
2018-03-14T19:32:04.070Z,74.10
2018-03-14T19:34:31.653Z,74.40
2018-03-14T19:36:59.212Z,74.60
2018-03-14T19:39:27.595Z,75.40
2018-03-14T19:41:55.157Z,75.50
2018-03-14T19:44:23.068Z,75.40
2018-03-14T19:46:50.667Z,75.60
2018-03-14T19:49:18.316Z,75.70
2018-03-14T19:51:45.880Z,75.80
2018-03-14T19:54:14.231Z,75.90
2018-03-14T19:56:42.565Z,75.90
2018-03-14T19:59:10.194Z,75.90
2018-03-14T20:01:37.786Z,75.90
2018-03-14T20:04:06.152Z,76.30
2018-03-14T20:06:33.773Z,76.30
2018-03-14T20:09:01.388Z,76.40
2018-03-14T20:11:29.010Z,77.00
2018-03-14T20:13:56.615Z,77.30
2018-03-14T20:16:24.952Z,77.20
2018-03-14T20:18:53.089Z,77.10
2018-03-14T20:21:20.720Z,77.00
2018-03-14T20:23:48.293Z,77.10
2018-03-14T20:26:15.846Z,77.40
2018-03-14T20:28:43.526Z,78.00
2018-03-14T20:31:11.099Z,78.10
2018-03-14T20:33:38.763Z,78.30
2018-03-14T20:36:06.364Z,78.60
2018-03-14T20:38:33.919Z,78.80
2018-03-14T20:41:02.255Z,78.50
2018-03-14T20:43:29.821Z,78.60
2018-03-14T20:45:57.387Z,79.00
2018-03-14T20:48:25.314Z,78.40
2018-03-14T20:50:54.169Z,78.30
2018-03-14T20:53:21.765Z,78.40
2018-03-14T20:55:49.444Z,78.10
2018-03-14T20:58:17.051Z,78.10
2018-03-14T21:00:44.673Z,78.30
2018-03-14T21:03:12.276Z,78.50
2018-03-14T21:05:39.851Z,78.80
2018-03-14T21:08:07.460Z,78.80
2018-03-14T21:10:35.025Z,79.30
2018-03-14T21:13:03.439Z,79.20
2018-03-14T21:15:31.067Z,79.20
2018-03-14T21:17:58.663Z,79.20
2018-03-14T21:20:26.252Z,79.70
2018-03-14T21:22:54.563Z,79.50
2018-03-14T21:25:22.174Z,79.50
2018-03-14T21:27:49.754Z,79.30
2018-03-14T21:30:17.347Z,79.90
2018-03-14T21:32:44.963Z,79.70
2018-03-14T21:35:12.700Z,80.40
2018-03-14T21:37:41.126Z,80.50
2018-03-14T21:40:08.696Z,80.50
2018-03-14T21:42:37.027Z,80.80
2018-03-14T21:45:04.642Z,80.80
2018-03-14T21:47:32.979Z,80.70
2018-03-14T21:50:00.687Z,80.80
2018-03-14T21:52:28.334Z,81.10
2018-03-14T21:54:55.924Z,80.90
2018-03-14T21:57:25.953Z,80.80
2018-03-14T21:59:54.195Z,80.90
2018-03-14T22:02:23.310Z,81.20
2018-03-14T22:04:50.993Z,81.30
2018-03-14T22:07:19.379Z,81.50
2018-03-14T22:09:47.031Z,81.50
2018-03-14T22:12:14.602Z,81.40
2018-03-14T22:14:42.199Z,82.20
2018-03-14T22:17:10.538Z,81.40
2018-03-14T22:19:38.877Z,81.20
2018-03-14T22:22:06.477Z,81.20
2018-03-14T22:24:34.039Z,80.80
2018-03-14T22:27:01.607Z,80.70
2018-03-14T22:29:29.982Z,80.90
2018-03-14T22:31:57.560Z,80.90
2018-03-14T22:34:25.452Z,81.50
2018-03-14T22:36:53.857Z,81.30
2018-03-14T22:39:22.220Z,81.40
2018-03-14T22:41:49.810Z,81.40
2018-03-14T22:44:18.210Z,82.00
2018-03-14T22:46:45.835Z,82.00
2018-03-14T22:49:13.401Z,81.70
2018-03-14T22:51:40.964Z,81.90
2018-03-14T22:54:08.509Z,82.20
2018-03-14T22:56:36.106Z,82.20
2018-03-14T22:59:03.736Z,82.90
2018-03-14T23:01:32.060Z,81.80
2018-03-14T23:03:59.630Z,81.70
2018-03-14T23:06:28.004Z,81.00
2018-03-14T23:08:55.575Z,81.00
2018-03-14T23:11:23.967Z,80.70
2018-03-14T23:13:51.576Z,81.20
2018-03-14T23:16:19.217Z,81.40
2018-03-14T23:18:47.577Z,81.90
2018-03-14T23:21:15.164Z,81.90
2018-03-14T23:23:42.712Z,82.10
2018-03-14T23:26:10.282Z,82.00
2018-03-14T23:28:37.830Z,82.30
2018-03-14T23:31:05.426Z,81.90
2018-03-14T23:33:32.970Z,82.30
2018-03-14T23:36:00.522Z,82.20
2018-03-14T23:38:28.124Z,82.10
2018-03-14T23:40:56.478Z,81.70
2018-03-14T23:43:24.913Z,81.80
2018-03-14T23:45:54.051Z,82.00
2018-03-14T23:48:21.618Z,82.00
2018-03-14T23:50:49.240Z,82.10
2018-03-14T23:53:16.816Z,82.20
2018-03-14T23:55:45.141Z,81.90
2018-03-14T23:58:12.820Z,82.00
